createdAt,value
2023-04-02T00:01:38.133Z,99.90
2023-04-02T00:04:26.898Z,99.90
2023-04-02T00:07:34.384Z,99.90
2023-04-02T00:10:04.612Z,99.90
2023-04-02T00:12:33.131Z,99.90
2023-04-02T00:15:01.451Z,99.80
2023-04-02T00:17:28.938Z,99.80
2023-04-02T00:20:20.035Z,99.20
2023-04-02T00:22:50.472Z,98.90
2023-04-02T00:25:18.042Z,98.30
2023-04-02T00:27:46.746Z,96.10
2023-04-02T00:30:18.249Z,97.30
2023-04-02T00:32:49.311Z,96.90
2023-04-02T00:35:29.413Z,96.90
2023-04-02T00:37:57.935Z,95.20
2023-04-02T00:40:34.918Z,97.20
2023-04-02T00:43:05.476Z,97.70
2023-04-02T00:45:38.756Z,97.70
2023-04-02T00:48:46.122Z,96.60
2023-04-02T00:51:58.591Z,96.10
2023-04-02T00:54:43.082Z,95.30
2023-04-02T00:57:28.323Z,97.20
2023-04-02T01:00:00.880Z,97.80
2023-04-02T01:02:36.977Z,96.60
2023-04-02T01:05:23.699Z,96.30
2023-04-02T01:08:25.987Z,96.60
2023-04-02T01:11:05.121Z,96.00
2023-04-02T01:13:41.558Z,96.00
2023-04-02T01:17:03.548Z,94.50
2023-04-02T01:20:14.752Z,96.00
2023-04-02T01:23:36.022Z,93.60
2023-04-02T01:26:51.868Z,95.10
2023-04-02T01:29:50.104Z,96.60
2023-04-02T01:32:26.654Z,94.30
2023-04-02T01:34:55.789Z,94.60
2023-04-02T01:38:03.660Z,94.10
2023-04-02T01:41:09.077Z,95.00
2023-04-02T01:44:21.590Z,95.90
2023-04-02T01:46:52.700Z,95.60
2023-04-02T01:49:24.767Z,96.00
2023-04-02T01:52:09.131Z,94.30
2023-04-02T01:54:42.025Z,94.20
2023-04-02T01:57:35.859Z,93.30
2023-04-02T02:00:12.667Z,93.50
2023-04-02T02:02:47.410Z,93.00
2023-04-02T02:05:23.099Z,90.80
2023-04-02T02:07:54.817Z,91.30
2023-04-02T02:10:42.303Z,90.60
2023-04-02T02:13:16.912Z,89.50
2023-04-02T02:15:48.200Z,88.60
2023-04-02T02:18:25.828Z,89.00
2023-04-02T02:21:11.092Z,88.60
2023-04-02T02:23:42.020Z,88.00
2023-04-02T02:26:29.169Z,87.00
2023-04-02T02:32:00.078Z,86.40
2023-04-02T02:34:47.956Z,86.90
2023-04-02T02:37:31.089Z,86.00
2023-04-02T02:40:16.467Z,87.20
2023-04-02T02:42:57.001Z,87.00
2023-04-02T02:45:37.847Z,87.00
2023-04-02T02:48:20.125Z,85.80
2023-04-02T02:50:51.277Z,85.80
2023-04-02T02:53:26.602Z,87.30
2023-04-02T02:56:01.825Z,88.10
2023-04-02T02:58:35.965Z,87.40
2023-04-02T03:01:24.671Z,86.80
2023-04-02T03:03:55.626Z,85.50
2023-04-02T03:06:31.245Z,85.40
2023-04-02T03:09:47.698Z,87.70
2023-04-02T03:13:07.144Z,85.80
2023-04-02T03:16:08.729Z,87.60
2023-04-02T03:19:55.285Z,87.60
2023-04-02T03:22:39.374Z,87.00
2023-04-02T03:25:43.115Z,87.70
2023-04-02T03:28:28.988Z,87.30
2023-04-02T03:31:25.484Z,86.70
2023-04-02T03:34:23.183Z,88.70
2023-04-02T03:37:14.496Z,86.40
2023-04-02T03:40:09.455Z,87.20
2023-04-02T03:42:54.566Z,86.10
2023-04-02T03:45:38.550Z,88.70
2023-04-02T03:48:39.094Z,88.40
2023-04-02T03:52:13.763Z,88.60
2023-04-02T03:54:54.030Z,88.40
2023-04-02T03:57:53.335Z,89.20
2023-04-02T04:00:52.779Z,89.70
2023-04-02T04:03:44.601Z,90.90
2023-04-02T04:06:29.564Z,89.30
2023-04-02T04:09:39.451Z,90.00
2023-04-02T04:12:48.413Z,88.00
2023-04-02T04:15:36.817Z,89.80
2023-04-02T04:18:47.556Z,88.60
2023-04-02T04:21:37.658Z,87.60
2023-04-02T04:24:24.157Z,89.00
2023-04-02T04:27:56.018Z,88.60
2023-04-02T04:30:50.981Z,86.90
2023-04-02T04:33:44.048Z,87.20
2023-04-02T04:36:56.699Z,88.30
2023-04-02T04:39:59.332Z,87.50
2023-04-02T04:42:37.653Z,89.10
2023-04-02T04:45:39.778Z,87.80
2023-04-02T04:48:23.895Z,88.00
2023-04-02T04:51:06.117Z,88.30
2023-04-02T04:53:55.104Z,88.60
2023-04-02T04:56:44.204Z,88.80
2023-04-02T04:59:55.380Z,87.10
2023-04-02T05:02:57.889Z,87.70
2023-04-02T05:05:37.198Z,87.90
2023-04-02T05:08:29.088Z,87.80
2023-04-02T05:11:12.565Z,87.50
2023-04-02T05:14:00.239Z,87.40
2023-04-02T05:16:49.210Z,86.40
2023-04-02T05:19:48.596Z,88.20
2023-04-02T05:22:52.486Z,88.20
2023-04-02T05:25:33.373Z,88.00
2023-04-02T05:28:21.178Z,88.40
2023-04-02T05:31:04.682Z,87.70
2023-04-02T05:33:37.806Z,88.80
2023-04-02T05:36:21.453Z,87.30
2023-04-02T05:38:54.755Z,87.30
2023-04-02T05:41:49.011Z,88.20
2023-04-02T05:44:41.006Z,86.80
2023-04-02T05:47:33.959Z,86.80
2023-04-02T05:50:08.698Z,86.90
2023-04-02T05:52:53.660Z,87.80
2023-04-02T05:55:51.180Z,87.50
2023-04-02T05:58:45.484Z,88.10
2023-04-02T06:02:07.234Z,88.10
2023-04-02T06:05:02.415Z,89.60
2023-04-02T06:08:21.391Z,87.30
2023-04-02T06:11:27.960Z,87.70
2023-04-02T06:13:57.809Z,86.90
2023-04-02T06:16:32.001Z,85.50
2023-04-02T06:19:00.025Z,85.50
2023-04-02T06:21:32.886Z,85.60
2023-04-02T06:24:11.820Z,85.60
2023-04-02T06:26:57.678Z,83.90
2023-04-02T06:29:40.418Z,83.30
2023-04-02T06:32:13.355Z,82.70
2023-04-02T06:34:45.838Z,80.00
2023-04-02T06:37:42.467Z,79.80
2023-04-02T06:40:44.671Z,81.70
2023-04-02T06:43:56.897Z,79.50
2023-04-02T06:47:02.868Z,79.40
2023-04-02T06:49:47.013Z,79.30
2023-04-02T06:52:36.579Z,79.00
2023-04-02T06:55:50.517Z,77.50
2023-04-02T06:58:23.156Z,77.00
2023-04-02T07:00:53.110Z,76.00
2023-04-02T07:03:43.918Z,75.10
2023-04-02T07:06:25.295Z,74.60
2023-04-02T07:08:58.916Z,75.70
2023-04-02T07:11:27.079Z,75.20
2023-04-02T07:13:57.989Z,73.50
2023-04-02T07:16:31.757Z,71.80
2023-04-02T07:19:06.817Z,71.10
2023-04-02T07:21:39.567Z,71.80
2023-04-02T07:24:07.266Z,70.30
2023-04-02T07:26:40.533Z,70.20
2023-04-02T07:29:16.619Z,69.50
2023-04-02T07:32:01.923Z,70.60
2023-04-02T07:34:41.825Z,70.40
2023-04-02T07:40:21.906Z,72.50
2023-04-02T07:42:49.993Z,68.70
2023-04-02T07:45:23.567Z,69.70
2023-04-02T07:47:52.650Z,69.10
2023-04-02T07:50:24.145Z,68.10
2023-04-02T07:52:54.582Z,67.40
2023-04-02T07:55:21.780Z,66.50
2023-04-02T07:58:00.939Z,67.60
2023-04-02T08:00:31.306Z,68.20
2023-04-02T08:02:59.020Z,69.90
2023-04-02T08:05:30.214Z,71.40
2023-04-02T08:08:01.523Z,70.90
2023-04-02T08:10:31.353Z,71.80
2023-04-02T08:13:07.470Z,70.70
2023-04-02T08:15:35.457Z,70.50
2023-04-02T08:18:03.558Z,69.50
2023-04-02T08:20:30.970Z,69.70
2023-04-02T08:23:01.022Z,69.00
2023-04-02T08:25:29.066Z,67.90
2023-04-02T08:27:57.064Z,67.30
2023-04-02T08:30:25.600Z,68.50
2023-04-02T08:32:53.283Z,68.20
2023-04-02T08:35:21.124Z,69.10
2023-04-02T08:37:51.387Z,70.40
2023-04-02T08:40:33.271Z,70.90
2023-04-02T08:43:25.131Z,70.50
2023-04-02T08:46:20.572Z,70.00
2023-04-02T08:49:02.997Z,71.20
2023-04-02T08:51:37.919Z,72.20
2023-04-02T08:54:45.306Z,70.10
2023-04-02T08:57:34.793Z,71.30
2023-04-02T09:00:39.325Z,70.30
2023-04-02T09:03:27.630Z,69.80
2023-04-02T09:06:00.092Z,69.60
2023-04-02T09:08:32.649Z,69.80
2023-04-02T09:11:19.865Z,69.00
2023-04-02T09:14:06.188Z,67.10
2023-04-02T09:17:15.380Z,65.90
2023-04-02T09:20:12.986Z,64.20
2023-04-02T09:22:45.010Z,62.50
2023-04-02T09:25:36.079Z,63.40
2023-04-02T09:28:06.053Z,61.00
2023-04-02T09:31:01.975Z,61.00
2023-04-02T09:34:23.397Z,59.70
2023-04-02T09:37:07.196Z,60.70
2023-04-02T09:39:35.682Z,59.30
2023-04-02T09:42:29.355Z,59.10
2023-04-02T09:45:24.007Z,58.30
2023-04-02T09:48:00.507Z,59.10
2023-04-02T09:50:34.650Z,56.40
2023-04-02T09:53:45.923Z,56.20
2023-04-02T09:56:58.685Z,56.20
2023-04-02T09:59:39.308Z,57.00
2023-04-02T10:02:30.645Z,58.30
2023-04-02T10:05:06.583Z,58.90
2023-04-02T10:07:53.284Z,58.90
2023-04-02T10:11:14.594Z,59.60
2023-04-02T10:14:27.506Z,58.20
2023-04-02T10:17:38.540Z,59.90
2023-04-02T10:20:48.561Z,60.00
2023-04-02T10:23:52.803Z,59.40
2023-04-02T10:31:03.920Z,57.90
2023-04-02T10:34:27.453Z,57.80
2023-04-02T10:37:52.539Z,58.00
2023-04-02T10:40:32.422Z,57.40
2023-04-02T10:44:12.721Z,56.70
2023-04-02T10:47:22.593Z,54.40
2023-04-02T10:51:00.564Z,54.70
2023-04-02T10:54:27.782Z,53.90
2023-04-02T10:57:24.910Z,55.10
2023-04-02T11:00:31.407Z,54.60
2023-04-02T11:03:09.073Z,55.50
2023-04-02T11:06:00.444Z,56.10
2023-04-02T11:08:50.505Z,56.10
2023-04-02T11:11:44.860Z,56.10
2023-04-02T11:14:32.929Z,55.50
2023-04-02T11:17:09.594Z,56.10
2023-04-02T11:19:37.883Z,57.40
2023-04-02T11:22:23.822Z,57.20
2023-04-02T11:25:02.066Z,56.10
2023-04-02T11:27:37.236Z,56.10
2023-04-02T11:30:28.300Z,54.80
2023-04-02T11:33:46.156Z,55.60
2023-04-02T11:36:57.201Z,54.80
2023-04-02T11:39:58.569Z,53.30
2023-04-02T11:42:41.927Z,52.50
2023-04-02T11:45:46.462Z,51.50
2023-04-02T11:48:48.589Z,53.60
2023-04-02T11:51:22.825Z,52.40
2023-04-02T11:53:58.524Z,51.00
2023-04-02T11:56:59.062Z,51.80
2023-04-02T12:00:29.047Z,52.10
2023-04-02T12:04:13.839Z,51.60
2023-04-02T12:06:54.671Z,53.00
2023-04-02T12:09:29.331Z,54.20
2023-04-02T12:12:28.712Z,54.20
2023-04-02T12:15:18.776Z,54.40
2023-04-02T12:17:54.969Z,53.10
2023-04-02T12:20:35.950Z,52.40
2023-04-02T12:23:04.348Z,53.00
2023-04-02T12:25:45.496Z,53.30
2023-04-02T12:28:19.797Z,53.70
2023-04-02T12:31:04.592Z,53.40
2023-04-02T12:33:41.552Z,53.90
2023-04-02T12:36:15.478Z,53.10
2023-04-02T12:38:59.004Z,52.10
2023-04-02T12:41:37.247Z,51.50
2023-04-02T12:44:38.320Z,51.10
2023-04-02T12:47:06.598Z,50.40
2023-04-02T12:49:56.162Z,49.50
2023-04-02T12:52:28.934Z,49.50
2023-04-02T12:55:24.729Z,49.60
2023-04-02T12:58:29.896Z,51.30
2023-04-02T13:01:37.363Z,52.70
2023-04-02T13:04:16.797Z,52.30
2023-04-02T13:07:04.378Z,50.40
2023-04-02T13:09:59.009Z,48.80
2023-04-02T13:15:40.081Z,48.40
2023-04-02T13:18:14.437Z,50.30
2023-04-02T13:21:08.547Z,51.40
2023-04-02T13:23:49.186Z,51.30
2023-04-02T13:27:23.334Z,51.00
2023-04-02T13:30:43.910Z,50.30
2023-04-02T13:33:20.672Z,49.90
2023-04-02T13:35:58.182Z,50.70
2023-04-02T13:38:57.311Z,50.50
2023-04-02T13:41:34.344Z,49.90
2023-04-02T13:44:14.928Z,50.10
2023-04-02T13:46:42.666Z,49.70
2023-04-02T13:49:11.898Z,50.20
2023-04-02T13:51:58.030Z,50.70
2023-04-02T13:55:12.746Z,50.60
2023-04-02T13:58:00.508Z,51.10
2023-04-02T14:00:37.895Z,51.10
2023-04-02T14:03:30.047Z,52.30
2023-04-02T14:06:30.088Z,52.40
2023-04-02T14:09:33.487Z,51.80
2023-04-02T14:13:05.206Z,52.30
2023-04-02T14:16:44.212Z,52.50
2023-04-02T14:19:38.308Z,51.80
2023-04-02T14:22:51.432Z,50.10
2023-04-02T14:26:05.559Z,49.20
2023-04-02T14:29:28.868Z,48.90
2023-04-02T14:32:22.066Z,48.10
2023-04-02T14:40:49.490Z,49.30
2023-04-02T14:43:35.442Z,52.20
2023-04-02T14:46:37.464Z,51.40
2023-04-02T14:49:58.934Z,50.90
2023-04-02T14:52:36.438Z,50.50
2023-04-02T14:55:26.433Z,50.60
2023-04-02T14:58:11.796Z,50.30
2023-04-02T15:01:42.788Z,49.10
2023-04-02T15:04:59.599Z,50.70
2023-04-02T15:08:16.779Z,51.70
2023-04-02T15:11:32.973Z,52.00
2023-04-02T15:14:47.830Z,51.50
2023-04-02T15:17:21.431Z,53.50
2023-04-02T15:20:06.105Z,52.70
2023-04-02T15:23:16.067Z,52.70
2023-04-02T15:26:16.493Z,50.90
2023-04-02T15:29:29.046Z,52.70
2023-04-02T15:32:38.642Z,52.40
2023-04-02T15:36:02.476Z,54.00
2023-04-02T15:39:18.264Z,53.70
2023-04-02T15:42:22.732Z,54.10
2023-04-02T15:45:08.268Z,54.00
2023-04-02T15:48:11.517Z,53.40
2023-04-02T15:51:32.979Z,52.30
2023-04-02T15:54:42.310Z,52.40
2023-04-02T15:57:58.357Z,51.40
2023-04-02T16:00:36.684Z,50.60
2023-04-02T16:03:43.454Z,51.60
2023-04-02T16:06:35.456Z,51.20
2023-04-02T16:09:32.644Z,51.00
2023-04-02T16:12:20.520Z,50.90
2023-04-02T16:14:51.527Z,51.70
2023-04-02T16:17:40.805Z,52.20
2023-04-02T16:20:39.390Z,52.70
2023-04-02T16:23:40.238Z,52.90
2023-04-02T16:26:26.619Z,53.60
2023-04-02T16:29:53.892Z,54.10
2023-04-02T16:33:03.261Z,53.00
2023-04-02T16:36:20.077Z,53.60
2023-04-02T16:39:37.504Z,53.80
2023-04-02T16:42:51.751Z,54.10
2023-04-02T16:45:51.096Z,53.10
2023-04-02T16:48:41.737Z,53.10
2023-04-02T16:51:32.268Z,53.90
2023-04-02T16:54:54.875Z,53.90
2023-04-02T16:58:50.634Z,54.60
2023-04-02T17:02:02.335Z,54.80
2023-04-02T17:05:17.306Z,54.80
2023-04-02T17:08:24.825Z,55.00
2023-04-02T17:11:17.939Z,55.30
2023-04-02T17:14:15.361Z,54.60
2023-04-02T17:16:51.067Z,55.90
2023-04-02T17:19:27.847Z,56.40
2023-04-02T17:22:04.746Z,57.20
2023-04-02T17:25:07.803Z,57.10
2023-04-02T17:27:48.950Z,57.20
2023-04-02T17:30:38.210Z,57.60
2023-04-02T17:33:19.148Z,57.50
2023-04-02T17:35:55.506Z,57.50
2023-04-02T17:39:03.161Z,58.00
2023-04-02T17:42:03.565Z,58.10
2023-04-02T17:45:13.669Z,57.50
2023-04-02T17:48:31.227Z,57.80
2023-04-02T17:51:10.719Z,58.60
2023-04-02T17:54:14.036Z,58.20
2023-04-02T17:57:12.003Z,59.20
2023-04-02T18:00:10.686Z,59.30
2023-04-02T18:03:41.210Z,59.40
2023-04-02T18:06:31.323Z,60.20
2023-04-02T18:09:29.112Z,60.20
2023-04-02T18:12:53.309Z,61.00
2023-04-02T18:15:45.679Z,61.80
2023-04-02T18:18:31.207Z,62.00
2023-04-02T18:21:44.640Z,61.70
2023-04-02T18:24:58.576Z,61.60
2023-04-02T18:27:37.630Z,62.60
2023-04-02T18:30:09.280Z,63.20
2023-04-02T18:33:20.828Z,62.40
2023-04-02T18:36:17.105Z,63.10
2023-04-02T18:39:37.627Z,62.90
2023-04-02T18:42:53.637Z,63.70
2023-04-02T18:45:51.940Z,63.70
2023-04-02T18:48:46.553Z,63.60
2023-04-02T18:51:25.900Z,64.00
2023-04-02T18:54:09.470Z,64.50
2023-04-02T18:56:41.409Z,63.70
2023-04-02T18:59:37.985Z,63.90
2023-04-02T19:02:39.977Z,64.00
2023-04-02T19:05:45.006Z,64.00
2023-04-02T19:08:38.484Z,64.30
2023-04-02T19:11:17.127Z,63.80
2023-04-02T19:13:51.911Z,65.30
2023-04-02T19:16:24.912Z,65.80
2023-04-02T19:19:22.673Z,66.60
2023-04-02T19:22:19.770Z,67.20
2023-04-02T19:25:51.174Z,67.30
2023-04-02T19:28:40.166Z,68.20
2023-04-02T19:31:41.784Z,68.40
2023-04-02T19:34:39.178Z,68.80
2023-04-02T19:37:22.843Z,68.50
2023-04-02T19:40:36.349Z,68.10
2023-04-02T19:43:04.482Z,69.10
2023-04-02T19:45:46.839Z,69.00
2023-04-02T19:48:21.041Z,69.40
2023-04-02T19:50:49.454Z,69.80
2023-04-02T19:53:19.240Z,70.40
2023-04-02T19:55:47.258Z,70.70
2023-04-02T19:58:32.972Z,70.50
2023-04-02T20:01:05.573Z,71.70
2023-04-02T20:03:35.206Z,72.90
2023-04-02T20:06:05.412Z,72.20
2023-04-02T20:08:34.330Z,71.20
2023-04-02T20:11:04.430Z,71.60
2023-04-02T20:13:52.871Z,71.60
2023-04-02T20:16:22.791Z,70.90
2023-04-02T20:18:52.979Z,71.10
2023-04-02T20:21:21.783Z,72.40
2023-04-02T20:23:57.453Z,73.00
2023-04-02T20:26:27.958Z,72.60
2023-04-02T20:29:02.269Z,73.30
2023-04-02T20:31:32.999Z,72.90
2023-04-02T20:34:02.797Z,72.30
2023-04-02T20:36:30.954Z,71.90
2023-04-02T20:38:58.792Z,73.60
2023-04-02T20:41:28.874Z,73.30
2023-04-02T20:43:59.344Z,73.30
2023-04-02T20:46:27.103Z,72.50
2023-04-02T20:48:55.150Z,72.80
2023-04-02T20:51:22.840Z,73.20
2023-04-02T20:53:53.517Z,73.30
2023-04-02T20:56:26.673Z,73.80
2023-04-02T20:59:00.578Z,73.20
2023-04-02T21:01:31.172Z,74.20
2023-04-02T21:04:14.884Z,73.80
2023-04-02T21:09:55.198Z,73.70
2023-04-02T21:12:24.871Z,73.90
2023-04-02T21:15:02.215Z,73.80
2023-04-02T21:17:34.254Z,75.30
2023-04-02T21:20:04.702Z,74.70
2023-04-02T21:22:36.287Z,74.00
2023-04-02T21:25:03.970Z,75.10
2023-04-02T21:27:31.361Z,73.40
2023-04-02T21:29:58.738Z,72.60
2023-04-02T21:32:26.618Z,73.00
2023-04-02T21:35:00.467Z,72.80
2023-04-02T21:37:42.650Z,73.90
2023-04-02T21:40:39.987Z,73.40
2023-04-02T21:43:15.554Z,74.00
2023-04-02T21:45:48.477Z,74.40
2023-04-02T21:48:18.712Z,73.10
2023-04-02T21:50:55.632Z,72.70
2023-04-02T21:53:25.441Z,72.70
2023-04-02T21:56:08.760Z,72.80
2023-04-02T21:58:44.506Z,72.60
2023-04-02T22:01:27.160Z,72.70
2023-04-02T22:04:03.943Z,73.70
2023-04-02T22:07:10.068Z,73.80
2023-04-02T22:10:02.737Z,74.10
2023-04-02T22:12:40.537Z,74.30
2023-04-02T22:15:18.709Z,75.00
2023-04-02T22:17:46.276Z,75.40
2023-04-02T22:20:19.845Z,75.50
2023-04-02T22:22:52.775Z,74.70
2023-04-02T22:25:24.005Z,75.70
2023-04-02T22:28:20.399Z,75.00
2023-04-02T22:30:49.289Z,75.50
2023-04-02T22:33:20.767Z,76.60
2023-04-02T22:36:01.237Z,74.50
2023-04-02T22:38:38.135Z,75.50
2023-04-02T22:41:14.558Z,76.30
2023-04-02T22:43:49.975Z,77.20
2023-04-02T22:46:31.218Z,77.40
2023-04-02T22:48:59.385Z,77.00
2023-04-02T22:51:35.020Z,77.40
2023-04-02T22:54:02.535Z,77.00
2023-04-02T22:56:38.742Z,78.10
2023-04-02T22:59:06.788Z,76.90
2023-04-02T23:01:39.491Z,76.50
2023-04-02T23:04:17.854Z,77.10
2023-04-02T23:06:55.927Z,76.80
2023-04-02T23:09:24.238Z,76.80
2023-04-02T23:11:56.631Z,77.50
2023-04-02T23:14:49.528Z,76.80
2023-04-02T23:17:16.974Z,76.60
2023-04-02T23:19:44.430Z,77.60
2023-04-02T23:22:16.844Z,77.20
2023-04-02T23:24:45.826Z,76.60
2023-04-02T23:27:14.315Z,76.10
2023-04-02T23:29:43.777Z,75.40
2023-04-02T23:32:21.019Z,76.10
2023-04-02T23:34:48.835Z,76.60
2023-04-02T23:37:16.740Z,77.40
2023-04-02T23:39:46.794Z,77.70
2023-04-02T23:42:16.320Z,76.40
2023-04-02T23:44:43.745Z,76.10
2023-04-02T23:47:14.354Z,76.30
2023-04-02T23:49:47.538Z,75.90
2023-04-02T23:52:18.291Z,75.90
2023-04-02T23:54:45.871Z,77.20
2023-04-02T23:57:14.964Z,75.50
2023-04-02T23:59:44.681Z,75.50
